Flight Track Log - Related Links

Times and Time Zones

All times are in EDT time to prevent confusion due to time zone crossing. See the JBU56 flight status page for this flight to view local times or setup timezone preferences in your user account.

Time Position Orientation Groundspeed Altitude Reporting Facility
EDT Latitude Longitude Course Direction KTS MPH feet Rate Location/Type
Thu 09:08:05 AM 39.0000 -77.5000 67° East 206 237 2,500  Level Potomac TRACON
Thu 09:08:59 AM 39.0500 -77.5000 360° North 248 285 4,700 2,895 Climbing Potomac TRACON
Thu 09:09:00 AM 39.1184 -77.1666 78° East  Level Estimated
Thu 09:09:59 AM 39.1167 -77.5000 360° North 268 308 8,000  Level Potomac TRACON
Thu 09:10:00 AM 39.1752 -77.0685 90° East  Level Estimated
Thu 09:10:59 AM 39.1667 -77.4167 52° Northeast 289 333 10,000  Level Potomac TRACON
Thu 09:11:00 AM 39.2319 -76.9703 74° East  Level Estimated
Thu 09:12:00 AM 39.2149 -76.8876 105° East  Level FlightAware Approximate
Thu 09:13:00 AM 39.2549 -76.8194 67° East  Level Estimated
Thu 09:13:15 AM 39.1261 -77.1703 102° East 340 391 14,300  Level Washington Center
Thu 09:14:16 AM 39.0981 -77.0761 111° Southeast 346 398 16,300 2,066 Climbing Washington Center
Thu 09:15:17 AM 39.1019 -76.9344 88° East 346 398 18,500 2,269 Climbing Washington Center
Thu 09:16:15 AM 39.1094 -76.8033 86° East 352 405 20,800 1,866 Climbing Washington Center
Thu 09:17:16 AM 39.1211 -76.6644 84° East 365 420 22,200 1,082 Climbing Washington Center
Thu 09:18:17 AM 39.1286 -76.5119 86° East 381 438 23,000 403 Climbing Washington Center
Thu 09:19:15 AM 39.1403 -76.3622 84° East 415 478 23,000  Level Washington Center
Thu 09:20:16 AM 39.1536 -76.2072 84° East 428 493 23,000 49 Level Washington Center
Thu 09:21:17 AM 39.1731 -76.0494 81° East 421 484 23,100 843 Climbing Washington Center
Thu 09:22:17 AM 39.1922 -75.9022 80° East 416 479 24,700 1,780 Climbing Washington Center
Thu 09:23:15 AM 39.2633 -75.7900 51° Northeast 391 450 26,600 1,627 Climbing Washington Center
Thu 09:24:15 AM 39.3467 -75.6856 44° Northeast 399 459 27,900 1,279 Climbing Washington Center
Thu 09:25:17 AM 39.4322 -75.5756 45° Northeast 406 467 29,200 1,361 Climbing Washington Center
Thu 09:26:14 AM 39.5156 -75.4650 46° Northeast 418 481 30,600 908 Climbing Washington Center
Thu 09:27:16 AM 39.5986 -75.3544 46° Northeast 418 481 31,000 590 Climbing Washington Center
Thu 09:28:16 AM 39.6839 -75.2411 46° Northeast 423 487 31,800 848 Climbing Washington Center
Thu 09:28:48 AM 39.7311 -75.1789 45° Northeast 432 497 32,300 783 Climbing New York Center
Thu 09:29:48 AM 39.8150 -75.0517 49° Northeast 469 540 33,000 347 Climbing New York Center
Thu 09:30:49 AM 39.8983 -74.9350 47° Northeast 457 526 33,000  Level New York Center
Thu 09:31:49 AM 39.9817 -74.8156 48° Northeast 452 520 33,000  Level New York Center
Thu 09:32:50 AM 40.0650 -74.6956 48° Northeast 447 514 33,000  Level New York Center
Thu 09:33:50 AM 40.1461 -74.5697 50° Northeast 447 514 33,000  Level New York Center
Thu 09:34:47 AM 40.2253 -74.4381 52° Northeast 452 520 33,000 -610 Level New York Center
Thu 09:35:48 AM 40.3064 -74.3119 50° Northeast 452 520 31,800 -1,587 Descending New York Center
Thu 09:36:48 AM 40.3894 -74.1853 49° Northeast 457 526 29,800 -1,736 Descending New York Center
Thu 09:37:49 AM 40.4700 -74.0583 50° Northeast 457 526 28,300 -675 Descending New York Center
Thu 09:39:28 AM 40.5950 -73.8667 49° Northeast 443 510 28,000 -525 Descending Boston Center
Thu 09:40:29 AM 40.6736 -73.7400 51° Northeast 443 510 26,900 -1,190 Descending Boston Center
Thu 09:41:29 AM 40.7458 -73.6181 52° Northeast 437 503 25,600 -1,289 Descending Boston Center
Thu 09:42:30 AM 40.8156 -73.5042 51° Northeast 411 473 24,300 -807 Descending Boston Center
Thu 09:43:28 AM 40.8853 -73.4008 48° Northeast 389 448 24,000 -550 Descending Boston Center
Thu 09:44:30 AM 40.9633 -73.2922 46° Northeast 374 430 23,200 -500 Descending Boston Center
Thu 09:45:28 AM 41.0556 -73.2328 26° Northeast 364 419 23,000 -101 Descending Boston Center
Thu 09:46:29 AM 41.1333 -73.1400 42° Northeast 364 419 23,000  Level Boston Center
Thu 09:47:29 AM 41.1819 -73.0083 64° Northeast 370 426 23,000  Level Boston Center
Thu 09:48:30 AM 41.2347 -72.8706 63° Northeast 394 453 23,000  Level Boston Center
Thu 09:49:28 AM 41.2892 -72.7275 63° Northeast 413 475 23,000  Level Boston Center
Thu 09:50:29 AM 41.3417 -72.5867 64° Northeast 418 481 23,000  Level Boston Center
Thu 09:51:27 AM 41.3917 -72.4456 65° Northeast 418 481 23,000  Level Boston Center
Thu 09:52:28 AM 41.4436 -72.3072 63° Northeast 423 487 23,000 -793 Level Boston Center
Thu 09:53:28 AM 41.4894 -72.1853 63° Northeast 411 473 21,400 -1,884 Descending Boston Center
Thu 09:54:29 AM 41.5389 -72.0492 64° Northeast 405 466 19,200 -2,168 Descending Boston Center
Thu 09:55:27 AM 41.5822 -71.9156 67° East 400 460 17,100 -2,083 Descending Boston Center
Thu 09:56:30 AM 41.6253 -71.7736 68° East 381 438 15,000 -1,934 Descending Boston Center
Thu 09:57:28 AM 41.6558 -71.6594 70° East 370 426 13,200 -1,932 Descending Boston Center
Thu 09:58:28 AM 41.6964 -71.5225 68° East 365 420 11,200 -1,109 Descending Boston Center
Thu 09:59:27 AM 41.7308 -71.4192 66° East 340 391 11,000 -98 Descending Boston Center
Thu 10:00:30 AM 41.7803 -71.3461 48° Northeast 293 337 11,000  Level Boston Center
Thu 10:01:41 AM 41.8378 -71.2642 47° Northeast 275 316 11,000 -955 Level Boston Center
Thu 10:02:42 AM 41.9228 -71.2181 22° Northeast 267 307 8,900 -1,966 Descending Boston Center
Thu 10:03:40 AM 41.9933 -71.1831 20° North 267 307 7,100 -1,866 Descending Boston Center
Thu 10:04:41 AM 42.0617 -71.1536 18° North 262 302 5,200 -1,266 Descending Boston Center
Thu 10:05:48 AM 42.1333 -71.1167 21° North 206 237 4,400 -1,039 Descending KA90
Thu 10:06:48 AM 42.1833 -71.1000 14° North 205 236 3,000 -900 Descending KA90
Thu 10:07:48 AM 42.2333 -71.0667 26° Northeast 200 230 2,600 -650 Descending KA90
Thu 10:08:48 AM 42.2833 -71.0500 14° North 157 181 1,700 -733 Descending KA90
Thu 10:10:40 AM 42.3497 -71.0131 22° Northeast 157 181 500 3,225 Descending Boston Center
Thu 10:11:41 AM 42.3911 -70.9981 15° North 157 181 11,000 5,164 Climbing Boston Center
Thu 10:12:42 AM 42.4328 -70.9831 15° North 157 181 11,000  Level Boston Center

Login

Don't have an account? Register now (free) for customized features, flight alerts, and more!